Time;durP1;ratioP1;P1;durP2;ratioP2;P2;SDS_P1;SDS_P2;PMS_P1;PMS_P2;Temp;Humidity;BMP_temperature;BMP_pressure;BME280_temperature;BME280_humidity;BME280_pressure;Samples;Min_cycle;Max_cycle;Signal;HPM_P1;HPM_P2
2021/05/12 00:00:19;;;;;;;30.75;20.95;;;12.40;95.10;;;;;;5074584;28;20395;-88
2021/05/12 00:02:46;;;;;;;29.83;21.00;;;12.40;95.00;;;;;;5070912;28;20403;-86
2021/05/12 00:05:12;;;;;;;32.40;21.85;;;12.40;95.00;;;;;;5074026;28;20044;-86
2021/05/12 00:07:39;;;;;;;38.70;23.15;;;12.50;95.00;;;;;;5076992;28;20387;-85
2021/05/12 00:10:07;;;;;;;36.08;22.23;;;12.40;94.90;;;;;;5087712;28;20532;-86
2021/05/12 00:12:34;;;;;;;37.13;21.67;;;12.40;94.90;;;;;;5069360;28;20068;-85
2021/05/12 00:15:00;;;;;;;30.88;21.15;;;12.40;95.00;;;;;;5077351;28;20131;-86
2021/05/12 00:17:27;;;;;;;34.00;21.40;;;12.40;95.00;;;;;;5070403;28;20049;-86
2021/05/12 00:19:56;;;;;;;31.00;20.33;;;12.40;94.90;;;;;;5070789;28;20049;-86
2021/05/12 00:22:35;;;;;;;32.38;19.80;;;12.30;94.90;;;;;;5054823;28;20130;-86
2021/05/12 00:25:03;;;;;;;36.75;21.27;;;12.30;95.00;;;;;;5067149;28;20055;-85
2021/05/12 00:27:29;;;;;;;35.45;20.73;;;12.20;95.00;;;;;;5086490;28;20040;-86
2021/05/12 00:29:55;;;;;;;32.47;20.23;;;12.20;94.80;;;;;;5069727;28;20053;-85
2021/05/12 00:32:20;;;;;;;35.13;21.15;;;12.20;95.10;;;;;;5071159;28;20067;-86
2021/05/12 00:34:47;;;;;;;38.08;21.27;;;12.20;95.10;;;;;;5072188;28;20497;-86
2021/05/12 00:37:13;;;;;;;37.22;21.25;;;12.20;95.20;;;;;;5071503;28;20139;-87
2021/05/12 00:39:39;;;;;;;35.72;21.52;;;12.20;95.20;;;;;;5055414;28;20540;-86
2021/05/12 00:42:05;;;;;;;33.67;20.50;;;12.20;95.20;;;;;;5074509;28;20463;-85
2021/05/12 00:44:31;;;;;;;37.30;20.52;;;12.20;95.20;;;;;;5073372;28;20052;-85
2021/05/12 00:47:03;;;;;;;39.75;21.58;;;12.20;95.20;;;;;;5086391;28;20548;-86
2021/05/12 00:49:29;;;;;;;39.08;21.02;;;12.20;95.20;;;;;;5057409;28;20065;-86
2021/05/12 00:51:55;;;;;;;43.22;22.52;;;12.20;95.20;;;;;;5074143;28;20129;-86
2021/05/12 00:54:22;;;;;;;38.35;22.20;;;12.20;95.20;;;;;;5087678;28;20102;-87
2021/05/12 00:56:48;;;;;;;43.47;22.40;;;12.20;95.30;;;;;;5084845;28;20139;-86
2021/05/12 00:59:14;;;;;;;39.38;21.65;;;12.20;95.30;;;;;;5082302;28;20040;-87
2021/05/12 01:01:39;;;;;;;44.67;22.70;;;12.20;95.30;;;;;;5084698;28;20499;-86
2021/05/12 01:04:07;;;;;;;39.83;22.55;;;12.20;95.30;;;;;;5083405;28;20558;-86
2021/05/12 01:06:39;;;;;;;46.65;23.08;;;12.10;95.40;;;;;;5082860;28;20508;-85
2021/05/12 01:09:09;;;;;;;47.92;22.17;;;12.10;95.50;;;;;;5083678;28;20052;-89
2021/05/12 01:11:36;;;;;;;58.90;23.40;;;12.20;95.50;;;;;;5069781;28;20049;-85
2021/05/12 01:14:02;;;;;;;51.70;23.92;;;12.10;95.50;;;;;;5072994;28;20484;-85
2021/05/12 01:16:28;;;;;;;58.72;23.20;;;12.00;95.60;;;;;;5057380;28;20063;-87
2021/05/12 01:18:54;;;;;;;55.70;23.25;;;12.00;95.60;;;;;;5080909;28;20079;-86
2021/05/12 01:21:20;;;;;;;51.45;24.63;;;12.00;95.70;;;;;;5072596;28;20142;-90
2021/05/12 01:23:48;;;;;;;59.13;24.15;;;12.00;95.70;;;;;;5075454;28;20047;-86
2021/05/12 01:26:21;;;;;;;52.65;24.73;;;12.00;95.80;;;;;;5072899;28;20048;-86
2021/05/12 01:28:52;;;;;;;63.70;25.70;;;12.00;95.80;;;;;;5077484;28;20063;-86
2021/05/12 01:31:50;;;;;;;51.00;24.40;;;12.00;95.90;;;;;;5086132;28;20044;-93
2021/05/12 01:34:19;;;;;;;51.28;23.38;;;12.00;96.00;;;;;;5055746;28;20047;-88
2021/05/12 01:36:46;;;;;;;59.97;24.75;;;12.00;96.00;;;;;;5074330;28;20047;-87
2021/05/12 01:39:13;;;;;;;45.30;23.60;;;12.00;96.00;;;;;;5074196;28;20515;-87
2021/05/12 01:41:40;;;;;;;49.13;24.25;;;11.90;96.00;;;;;;5059866;28;20548;-87
2021/05/12 01:44:11;;;;;;;54.17;23.92;;;11.90;96.00;;;;;;5068193;28;20045;-87
2021/05/12 01:46:39;;;;;;;47.63;24.63;;;11.90;96.10;;;;;;5064729;28;20053;-87
2021/05/12 01:49:06;;;;;;;49.50;24.48;;;11.90;96.10;;;;;;5075744;28;20098;-87
2021/05/12 01:51:34;;;;;;;49.20;24.05;;;11.90;96.10;;;;;;5073034;28;20047;-86
2021/05/12 01:53:59;;;;;;;50.65;24.80;;;11.90;96.10;;;;;;5073398;28;20475;-87
2021/05/12 01:56:26;;;;;;;49.47;23.70;;;12.00;96.20;;;;;;5074569;28;20086;-87
2021/05/12 01:58:51;;;;;;;50.60;24.75;;;12.00;96.20;;;;;;5057525;28;20448;-87
2021/05/12 02:01:17;;;;;;;45.55;23.55;;;11.90;96.20;;;;;;5073049;28;20072;-87
2021/05/12 02:03:43;;;;;;;52.92;24.65;;;11.90;96.20;;;;;;5085601;28;20058;-87
2021/05/12 02:06:09;;;;;;;44.03;22.52;;;11.90;96.20;;;;;;5061741;28;20056;-87
2021/05/12 02:08:35;;;;;;;36.60;20.67;;;11.90;96.30;;;;;;5074007;28;20047;-86
2021/05/12 02:11:04;;;;;;;39.80;20.73;;;11.90;96.30;;;;;;5072031;28;20052;-86
2021/05/12 02:13:31;;;;;;;38.58;19.65;;;11.90;96.30;;;;;;5076330;28;20114;-87
2021/05/12 02:16:01;;;;;;;39.97;19.55;;;11.90;96.30;;;;;;5067360;28;20075;-87
2021/05/12 02:18:27;;;;;;;34.83;20.15;;;12.00;96.30;;;;;;5038954;28;20128;-87
2021/05/12 02:20:53;;;;;;;38.35;20.45;;;11.90;96.30;;;;;;5069607;28;20457;-87
2021/05/12 02:23:21;;;;;;;35.13;19.58;;;11.90;96.30;;;;;;5066429;28;20044;-88
2021/05/12 02:25:46;;;;;;;34.10;19.30;;;11.90;96.30;;;;;;5067653;28;20543;-87
2021/05/12 02:28:12;;;;;;;34.15;19.88;;;11.90;96.40;;;;;;5068216;28;20045;-87
2021/05/12 02:30:39;;;;;;;36.60;19.63;;;11.90;96.40;;;;;;5069952;28;20488;-87
2021/05/12 02:33:06;;;;;;;35.13;19.60;;;11.90;96.40;;;;;;5089692;28;20041;-88
2021/05/12 02:35:33;;;;;;;31.00;19.90;;;11.90;96.40;;;;;;5087853;28;20044;-86
2021/05/12 02:37:59;;;;;;;37.22;20.73;;;11.90;96.40;;;;;;5079989;28;20060;-87
2021/05/12 02:40:26;;;;;;;35.63;21.27;;;11.90;96.40;;;;;;5077424;28;20543;-87
2021/05/12 02:42:55;;;;;;;35.50;20.52;;;11.90;96.40;;;;;;5086929;28;20056;-87
2021/05/12 02:45:21;;;;;;;33.25;20.67;;;11.90;96.40;;;;;;5069372;28;20529;-90
2021/05/12 02:48:00;;;;;;;35.15;20.95;;;11.90;96.40;;;;;;5085889;28;20114;-87
2021/05/12 02:50:43;;;;;;;37.47;20.63;;;11.90;96.40;;;;;;5086653;28;20142;-87
2021/05/12 02:53:11;;;;;;;33.17;19.27;;;11.90;96.30;;;;;;5057803;28;20052;-88
2021/05/12 02:55:38;;;;;;;39.80;22.30;;;11.90;96.40;;;;;;5084202;28;20097;-87
2021/05/12 02:58:06;;;;;;;34.42;20.67;;;11.90;96.30;;;;;;5081691;28;20067;-86
2021/05/12 03:00:33;;;;;;;39.40;22.27;;;11.90;96.40;;;;;;5069388;28;20047;-85
2021/05/12 03:02:59;;;;;;;39.17;21.90;;;11.80;96.50;;;;;;5074119;28;20083;-87
2021/05/12 03:05:26;;;;;;;36.75;21.95;;;11.90;96.50;;;;;;5079015;28;20068;-89
2021/05/12 03:07:52;;;;;;;33.08;20.38;;;11.90;96.50;;;;;;5086215;28;20061;-87
2021/05/12 03:10:20;;;;;;;40.85;21.85;;;11.90;96.60;;;;;;5070383;28;20052;-87
2021/05/12 03:12:46;;;;;;;35.22;21.17;;;11.80;96.50;;;;;;5072264;28;20489;-87
2021/05/12 03:15:15;;;;;;;31.58;20.50;;;11.80;96.60;;;;;;5086774;28;20040;-88
2021/05/12 03:17:41;;;;;;;36.75;22.25;;;11.80;96.60;;;;;;5071250;28;20150;-87
2021/05/12 03:20:08;;;;;;;33.58;21.25;;;11.80;96.60;;;;;;5074573;28;20131;-87
2021/05/12 03:22:34;;;;;;;34.17;21.67;;;11.80;96.60;;;;;;5075383;28;20064;-86
2021/05/12 03:25:00;;;;;;;34.75;21.10;;;11.70;96.60;;;;;;5068962;28;20079;-86
2021/05/12 03:27:26;;;;;;;38.15;22.45;;;11.70;96.60;;;;;;5074047;28;20055;-90
2021/05/12 03:29:52;;;;;;;32.20;21.55;;;11.70;96.60;;;;;;5080466;28;20161;-87
2021/05/12 03:32:17;;;;;;;36.33;21.50;;;11.70;96.60;;;;;;5068962;28;20484;-86
2021/05/12 03:34:43;;;;;;;36.38;21.92;;;11.70;96.60;;;;;;5072227;28;20041;-86
2021/05/12 03:37:09;;;;;;;36.83;22.30;;;11.60;96.60;;;;;;5078624;28;20138;-86
2021/05/12 03:39:35;;;;;;;32.67;21.17;;;11.60;96.60;;;;;;5085644;28;20082;-86
2021/05/12 03:42:00;;;;;;;35.55;22.40;;;11.60;96.60;;;;;;5084316;28;20055;-86
2021/05/12 03:44:26;;;;;;;40.70;22.70;;;11.60;96.60;;;;;;5082088;28;20050;-89
2021/05/12 03:46:52;;;;;;;34.13;22.13;;;11.60;96.50;;;;;;5083733;28;20046;-86
2021/05/12 03:49:18;;;;;;;33.90;22.27;;;11.50;96.50;;;;;;5070123;28;20065;-86
2021/05/12 03:51:44;;;;;;;33.60;20.98;;;11.50;96.50;;;;;;5082957;28;20097;-87
2021/05/12 03:54:11;;;;;;;31.13;20.85;;;11.50;96.50;;;;;;5068935;28;20044;-87
2021/05/12 03:56:37;;;;;;;33.95;20.75;;;11.50;96.50;;;;;;5087839;28;20097;-87
2021/05/12 03:59:03;;;;;;;38.63;22.33;;;11.50;96.50;;;;;;5084524;28;20036;-85
2021/05/12 04:01:29;;;;;;;30.80;20.80;;;11.50;96.40;;;;;;5085253;28;20063;-87
2021/05/12 04:03:54;;;;;;;34.60;22.30;;;11.40;96.50;;;;;;5068875;28;20044;-87
2021/05/12 04:06:20;;;;;;;34.58;21.08;;;11.40;96.50;;;;;;5071406;28;20067;-87
2021/05/12 04:08:46;;;;;;;32.08;20.13;;;11.30;96.40;;;;;;5075362;28;20052;-86
2021/05/12 04:11:12;;;;;;;33.10;19.88;;;11.30;96.50;;;;;;5081383;28;20052;-87
2021/05/12 04:13:38;;;;;;;33.17;21.13;;;11.40;96.50;;;;;;5068189;28;20502;-87
2021/05/12 04:16:04;;;;;;;29.48;19.48;;;11.30;96.60;;;;;;5068241;28;20616;-85
2021/05/12 04:18:30;;;;;;;29.85;18.95;;;11.30;96.60;;;;;;5067847;28;20051;-87
2021/05/12 04:20:56;;;;;;;32.72;20.35;;;11.20;96.50;;;;;;5069954;28;20045;-86
2021/05/12 04:23:22;;;;;;;26.20;17.95;;;11.20;96.60;;;;;;5083918;28;20487;-87
2021/05/12 04:25:47;;;;;;;27.55;18.88;;;11.20;96.70;;;;;;5077935;28;20055;-87
2021/05/12 04:28:13;;;;;;;30.55;20.45;;;11.30;96.60;;;;;;5085798;28;20056;-88
2021/05/12 04:30:39;;;;;;;27.73;19.85;;;11.20;96.60;;;;;;5085627;28;20495;-86
2021/05/12 04:33:05;;;;;;;26.42;18.35;;;11.20;96.70;;;;;;5080042;28;20135;-88
2021/05/12 04:35:31;;;;;;;29.35;19.60;;;11.20;96.70;;;;;;5072232;28;20051;-87
2021/05/12 04:37:57;;;;;;;28.08;19.80;;;11.20;96.70;;;;;;5087281;28;20052;-87
2021/05/12 04:40:24;;;;;;;27.48;18.85;;;11.30;96.70;;;;;;5084962;28;20055;-87
2021/05/12 04:42:50;;;;;;;26.58;18.98;;;11.30;96.70;;;;;;5083237;28;20044;-86
2021/05/12 04:45:17;;;;;;;25.95;17.95;;;11.30;96.70;;;;;;5085870;28;20048;-87
2021/05/12 04:47:54;;;;;;;29.27;19.63;;;11.30;96.70;;;;;;5085434;28;20044;-87
2021/05/12 04:50:22;;;;;;;29.70;19.83;;;11.40;96.80;;;;;;5042740;28;20415;-87
2021/05/12 04:52:47;;;;;;;31.00;20.88;;;11.40;96.80;;;;;;5076236;28;20032;-88
2021/05/12 04:55:14;;;;;;;29.70;20.60;;;11.40;96.80;;;;;;5081580;28;20054;-86
2021/05/12 04:57:40;;;;;;;26.60;18.15;;;11.40;96.90;;;;;;5037263;28;20060;-87
2021/05/12 05:00:06;;;;;;;25.85;18.17;;;11.40;96.90;;;;;;5069103;28;20121;-89
2021/05/12 05:02:35;;;;;;;25.67;17.45;;;11.50;96.60;;;;;;5023871;28;20047;-86
2021/05/12 05:05:14;;;;;;;25.63;18.25;;;11.50;96.70;;;;;;5024475;28;20546;-87
2021/05/12 05:08:01;;;;;;;24.67;17.60;;;11.60;96.70;;;;;;5007263;28;20107;-88
2021/05/12 05:10:32;;;;;;;25.15;17.25;;;11.60;96.70;;;;;;5025865;28;20053;-93
2021/05/12 05:13:16;;;;;;;29.42;19.48;;;11.60;96.80;;;;;;5004910;28;20072;-91
2021/05/12 05:15:48;;;;;;;26.50;17.83;;;11.70;96.80;;;;;;5027817;28;20055;-94
2021/05/12 05:18:29;;;;;;;28.65;18.02;;;11.70;97.10;;;;;;5025660;28;20083;-94
2021/05/12 05:20:59;;;;;;;22.58;17.00;;;11.70;96.80;;;;;;5051418;28;20056;-86
2021/05/12 05:23:25;;;;;;;26.17;17.30;;;11.70;96.60;;;;;;5059181;28;20044;-84
2021/05/12 05:25:50;;;;;;;21.25;15.73;;;11.80;96.60;;;;;;5076209;28;20399;-87
2021/05/12 05:28:17;;;;;;;20.63;14.73;;;11.80;96.30;;;;;;5080603;28;20440;-87
2021/05/12 05:30:42;;;;;;;21.67;15.10;;;11.80;96.20;;;;;;5068495;28;20041;-88
2021/05/12 05:33:09;;;;;;;17.67;14.00;;;11.80;96.30;;;;;;5085075;28;20044;-89
2021/05/12 05:35:35;;;;;;;19.88;14.23;;;11.90;95.80;;;;;;5082731;28;20055;-87
2021/05/12 05:38:01;;;;;;;17.58;12.45;;;11.90;95.00;;;;;;5074209;28;20036;-87
2021/05/12 05:40:27;;;;;;;15.20;9.80;;;12.00;94.60;;;;;;5056184;28;20040;-86
2021/05/12 05:43:01;;;;;;;15.32;11.00;;;12.10;93.70;;;;;;5087839;28;20052;-86
2021/05/12 05:45:28;;;;;;;16.75;11.27;;;12.10;93.30;;;;;;5065691;28;20045;-90
2021/05/12 05:47:54;;;;;;;14.05;8.90;;;12.00;93.10;;;;;;5070866;28;20044;-86
2021/05/12 05:50:21;;;;;;;13.98;9.50;;;12.00;92.90;;;;;;5052549;28;20051;-86
2021/05/12 05:52:46;;;;;;;14.65;10.15;;;12.10;92.80;;;;;;5068397;28;20097;-87
2021/05/12 05:55:13;;;;;;;15.15;10.10;;;12.10;92.40;;;;;;5055328;28;20484;-87
2021/05/12 05:57:39;;;;;;;13.00;8.55;;;12.10;92.00;;;;;;5052079;28;20055;-86
2021/05/12 06:00:07;;;;;;;12.90;8.57;;;12.10;92.20;;;;;;5054748;28;20049;-88
2021/05/12 06:02:35;;;;;;;12.30;8.27;;;12.20;91.60;;;;;;5053828;28;20071;-87
2021/05/12 06:05:02;;;;;;;12.65;8.15;;;12.20;91.30;;;;;;5070800;28;20106;-87
2021/05/12 06:07:28;;;;;;;10.95;7.90;;;12.20;91.50;;;;;;5073805;28;20052;-86
2021/05/12 06:09:54;;;;;;;13.43;8.65;;;12.30;90.70;;;;;;5077884;28;20109;-86
2021/05/12 06:12:19;;;;;;;11.38;7.20;;;12.20;91.10;;;;;;5074064;28;20056;-87
2021/05/12 06:14:45;;;;;;;12.73;8.25;;;12.30;90.60;;;;;;5074554;28;20052;-89
2021/05/12 06:17:11;;;;;;;13.32;7.63;;;12.30;90.60;;;;;;5079807;28;20490;-90
2021/05/12 06:19:37;;;;;;;14.35;7.03;;;12.40;90.40;;;;;;5072737;28;20117;-90
2021/05/12 06:22:03;;;;;;;14.85;7.15;;;12.50;89.70;;;;;;5089650;28;20056;-85
2021/05/12 06:24:29;;;;;;;11.43;6.88;;;12.50;89.70;;;;;;5083273;28;20106;-89
2021/05/12 06:26:55;;;;;;;13.30;7.28;;;12.50;88.50;;;;;;5075689;28;20048;-89
2021/05/12 06:29:21;;;;;;;9.10;5.28;;;12.50;90.20;;;;;;5088444;28;20068;-88
2021/05/12 06:31:46;;;;;;;10.38;6.25;;;12.60;87.80;;;;;;5065571;28;20079;-88
2021/05/12 06:34:12;;;;;;;11.00;6.20;;;12.60;88.10;;;;;;5082285;28;20044;-88
2021/05/12 06:36:41;;;;;;;10.82;5.40;;;12.60;88.30;;;;;;5088123;28;20072;-88
2021/05/12 06:39:07;;;;;;;9.68;5.72;;;12.60;88.10;;;;;;5075202;28;20087;-89
2021/05/12 06:41:34;;;;;;;7.47;4.90;;;12.60;88.00;;;;;;5066691;28;20063;-90
2021/05/12 06:44:01;;;;;;;11.40;5.07;;;12.70;88.20;;;;;;5073143;28;20051;-87
2021/05/12 06:46:26;;;;;;;12.30;4.63;;;12.80;86.90;;;;;;5073107;28;20072;-88
2021/05/12 06:48:52;;;;;;;9.85;4.60;;;12.80;86.50;;;;;;5077433;28;20550;-88
2021/05/12 06:51:19;;;;;;;9.32;4.60;;;12.90;85.40;;;;;;5073368;28;20131;-89
2021/05/12 06:53:45;;;;;;;8.85;4.60;;;12.90;86.40;;;;;;5071633;28;20053;-88
2021/05/12 06:56:11;;;;;;;11.88;4.55;;;12.90;86.10;;;;;;5056185;28;20044;-88
2021/05/12 06:58:41;;;;;;;9.23;4.43;;;12.90;86.30;;;;;;5075153;28;20083;-88
2021/05/12 07:01:08;;;;;;;12.13;4.55;;;12.90;86.70;;;;;;5084697;28;20101;-89
2021/05/12 07:03:34;;;;;;;7.93;4.43;;;12.90;87.40;;;;;;5066081;28;20133;-90
2021/05/12 07:06:01;;;;;;;7.68;3.70;;;13.10;86.20;;;;;;5062162;28;20476;-87
2021/05/12 07:08:27;;;;;;;7.32;3.03;;;13.20;84.80;;;;;;5067562;28;20105;-91
2021/05/12 07:10:53;;;;;;;8.00;3.25;;;13.20;85.00;;;;;;5059564;28;20052;-87
2021/05/12 07:13:19;;;;;;;6.95;3.08;;;13.20;86.10;;;;;;5067863;28;20127;-88
2021/05/12 07:15:45;;;;;;;7.15;2.80;;;13.30;85.10;;;;;;5078812;28;20049;-87
2021/05/12 07:18:11;;;;;;;5.60;2.70;;;13.40;85.40;;;;;;5062178;28;20110;-87
2021/05/12 07:20:37;;;;;;;5.82;2.00;;;13.40;86.10;;;;;;5079386;28;20052;-88
2021/05/12 07:23:08;;;;;;;8.95;2.45;;;13.60;82.90;;;;;;5068746;28;20561;-87
2021/05/12 07:25:36;;;;;;;7.63;2.38;;;13.60;84.30;;;;;;5070591;28;20488;-90
2021/05/12 07:28:04;;;;;;;9.13;2.60;;;13.80;82.70;;;;;;5073544;28;20060;-86
2021/05/12 07:30:31;;;;;;;10.35;2.65;;;13.70;83.50;;;;;;5064832;28;20056;-88
2021/05/12 07:32:57;;;;;;;8.88;2.60;;;13.80;84.90;;;;;;5065779;28;20081;-88
2021/05/12 07:35:23;;;;;;;10.98;2.65;;;13.90;82.90;;;;;;5064016;28;20145;-88
2021/05/12 07:37:49;;;;;;;6.88;2.38;;;14.00;81.30;;;;;;5058494;28;20536;-88
2021/05/12 07:40:16;;;;;;;8.10;2.40;;;14.10;81.80;;;;;;5052130;28;20170;-88
2021/05/12 07:42:45;;;;;;;7.47;2.63;;;14.10;80.60;;;;;;5050135;28;20443;-88
2021/05/12 07:45:13;;;;;;;4.93;2.00;;;14.10;82.70;;;;;;5066454;28;20049;-88
2021/05/12 07:47:40;;;;;;;6.85;2.20;;;14.20;80.70;;;;;;5062027;28;20053;-88
2021/05/12 07:50:10;;;;;;;6.97;2.33;;;14.20;80.50;;;;;;5050849;28;20049;-88
2021/05/12 07:52:38;;;;;;;6.40;1.95;;;14.30;79.90;;;;;;5064217;28;20055;-89
2021/05/12 07:55:06;;;;;;;6.05;2.00;;;14.40;78.50;;;;;;5066651;28;20048;-87
2021/05/12 07:57:32;;;;;;;7.38;2.20;;;14.30;79.10;;;;;;5070388;28;20040;-89
2021/05/12 07:59:58;;;;;;;8.88;1.90;;;14.30;80.70;;;;;;5083835;28;20050;-88
2021/05/12 08:02:24;;;;;;;7.78;2.38;;;14.50;78.80;;;;;;5083570;28;20047;-89
2021/05/12 08:04:50;;;;;;;9.43;3.50;;;14.50;77.50;;;;;;5066779;28;20550;-89
2021/05/12 08:07:31;;;;;;;8.48;2.40;;;14.60;77.90;;;;;;5071837;28;20054;-89
2021/05/12 08:09:57;;;;;;;7.38;2.08;;;14.60;78.80;;;;;;5065832;28;20051;-88
2021/05/12 08:12:23;;;;;;;8.18;2.10;;;14.70;78.50;;;;;;5056829;28;20502;-90
2021/05/12 08:14:49;;;;;;;10.98;2.63;;;14.80;77.70;;;;;;5068736;28;20048;-88
2021/05/12 08:17:15;;;;;;;6.70;2.35;;;14.70;77.10;;;;;;5081368;28;20044;-88
2021/05/12 08:19:44;;;;;;;7.72;2.40;;;14.80;78.00;;;;;;5079009;28;20032;-89
2021/05/12 08:22:10;;;;;;;7.25;2.10;;;14.80;79.60;;;;;;5071751;28;20044;-88
2021/05/12 08:24:39;;;;;;;9.07;2.17;;;14.90;78.50;;;;;;5071296;28;20052;-89
2021/05/12 08:27:05;;;;;;;8.10;2.42;;;15.00;77.20;;;;;;5061507;28;20506;-88
2021/05/12 08:29:36;;;;;;;6.38;2.30;;;14.90;78.40;;;;;;5073180;28;20135;-86
2021/05/12 08:32:04;;;;;;;8.95;2.33;;;15.00;76.60;;;;;;5070718;28;20044;-83
2021/05/12 08:34:39;;;;;;;6.95;2.13;;;14.80;77.70;;;;;;5076582;28;20068;-89
2021/05/12 08:37:25;;;;;;;7.82;1.80;;;14.70;77.40;;;;;;5055734;28;20048;-88
2021/05/12 08:39:51;;;;;;;8.48;1.95;;;14.90;75.10;;;;;;5084983;28;20051;-89
2021/05/12 08:42:18;;;;;;;7.25;1.67;;;15.00;75.70;;;;;;5071700;28;20464;-88
2021/05/12 08:44:47;;;;;;;7.18;1.95;;;15.10;73.90;;;;;;5058447;28;20041;-87
2021/05/12 08:47:16;;;;;;;7.60;1.83;;;15.10;74.60;;;;;;5073564;28;20097;-88
2021/05/12 08:49:43;;;;;;;9.50;2.30;;;15.10;72.90;;;;;;5067994;28;20114;-87
2021/05/12 08:52:10;;;;;;;6.18;1.73;;;15.00;75.20;;;;;;5067187;28;20048;-87
2021/05/12 08:54:37;;;;;;;7.03;1.90;;;14.80;74.70;;;;;;5081749;28;20087;-91
2021/05/12 08:57:03;;;;;;;7.60;2.20;;;14.90;73.40;;;;;;5069916;28;20076;-87
2021/05/12 08:59:30;;;;;;;7.57;1.80;;;15.00;73.10;;;;;;5085327;28;20056;-87
2021/05/12 09:01:56;;;;;;;9.45;2.35;;;15.20;72.90;;;;;;5077949;28;20569;-87
2021/05/12 09:04:22;;;;;;;10.77;2.08;;;15.10;75.40;;;;;;5073266;28;20060;-87
2021/05/12 09:06:49;;;;;;;8.10;2.00;;;15.20;74.40;;;;;;5086308;28;20074;-87
2021/05/12 09:09:16;;;;;;;8.10;2.85;;;15.20;74.10;;;;;;5076547;28;20052;-87
2021/05/12 09:11:42;;;;;;;6.78;1.63;;;15.40;73.20;;;;;;5082421;28;20173;-87
2021/05/12 09:14:35;;;;;;;8.30;2.13;;;15.40;73.80;;;;;;5086287;28;20497;-88
2021/05/12 09:17:01;;;;;;;10.27;2.25;;;15.40;72.20;;;;;;5068002;28;20086;-88
2021/05/12 09:19:28;;;;;;;9.50;2.47;;;15.20;71.90;;;;;;5079406;28;20400;-89
2021/05/12 09:22:00;;;;;;;10.63;2.25;;;15.10;73.00;;;;;;5073702;28;20165;-87
2021/05/12 09:24:32;;;;;;;8.73;2.08;;;15.00;75.40;;;;;;5087241;28;20044;-86
2021/05/12 09:27:04;;;;;;;8.88;2.20;;;15.10;74.00;;;;;;5061454;28;20049;-88
2021/05/12 09:29:37;;;;;;;10.95;1.98;;;15.10;73.20;;;;;;5057557;28;20053;-90
2021/05/12 09:32:06;;;;;;;10.02;2.35;;;15.10;74.00;;;;;;5081031;28;20051;-86
2021/05/12 09:34:48;;;;;;;12.05;2.92;;;15.00;75.00;;;;;;5050372;28;20060;-86
2021/05/12 09:37:42;;;;;;;11.85;2.40;;;15.20;74.80;;;;;;5073995;28;20090;-87
2021/05/12 09:40:12;;;;;;;9.88;2.35;;;15.20;73.20;;;;;;5037985;28;20063;-87
2021/05/12 09:42:40;;;;;;;13.10;2.92;;;15.10;73.10;;;;;;5066790;28;21419;-90
2021/05/12 09:45:23;;;;;;;11.43;2.60;;;15.20;74.90;;;;;;5081755;28;20040;-89
2021/05/12 09:47:54;;;;;;;11.20;3.03;;;15.30;75.10;;;;;;5077874;28;20049;-88
2021/05/12 09:50:26;;;;;;;7.85;2.40;;;15.30;74.90;;;;;;5066200;28;20471;-87
2021/05/12 09:52:56;;;;;;;8.27;2.10;;;15.20;75.20;;;;;;5072494;28;20040;-86
2021/05/12 09:55:45;;;;;;;7.80;2.25;;;15.20;75.30;;;;;;5074214;28;22203;-89
2021/05/12 09:58:12;;;;;;;14.25;2.97;;;15.40;72.90;;;;;;5062797;28;20055;-87
2021/05/12 10:00:47;;;;;;;9.00;2.70;;;15.60;75.10;;;;;;5059446;28;20407;-89
2021/05/12 10:03:14;;;;;;;10.43;2.33;;;15.70;73.10;;;;;;5071206;28;20040;-90
2021/05/12 10:05:50;;;;;;;8.43;2.17;;;15.60;72.70;;;;;;5075609;28;20044;-93
2021/05/12 10:08:23;;;;;;;9.18;2.63;;;15.60;73.70;;;;;;5061721;28;20080;-89
2021/05/12 10:11:01;;;;;;;10.25;2.03;;;15.90;73.90;;;;;;5072704;28;20041;-88
2021/05/12 10:13:28;;;;;;;9.73;2.03;;;15.90;71.80;;;;;;5065388;28;20152;-88
2021/05/12 10:15:54;;;;;;;12.98;2.28;;;15.60;71.50;;;;;;5055770;28;20049;-88
2021/05/12 10:18:20;;;;;;;10.50;2.65;;;15.30;72.00;;;;;;5077383;28;20036;-88
2021/05/12 10:20:46;;;;;;;9.23;2.33;;;15.30;74.00;;;;;;5073081;28;20048;-89
2021/05/12 10:23:12;;;;;;;10.10;2.03;;;15.50;74.60;;;;;;5081012;28;20044;-89
2021/05/12 10:25:39;;;;;;;9.07;1.95;;;15.70;73.60;;;;;;5076774;28;20051;-88
2021/05/12 10:28:07;;;;;;;9.52;2.28;;;16.00;70.30;;;;;;5059572;28;20592;-88
2021/05/12 10:30:34;;;;;;;10.90;2.72;;;16.30;70.90;;;;;;5087072;28;20141;-87
2021/05/12 10:33:00;;;;;;;15.60;2.78;;;16.50;72.50;;;;;;5085485;28;20049;-90
2021/05/12 10:35:34;;;;;;;9.18;2.20;;;16.40;71.40;;;;;;5080512;28;20411;-87
2021/05/12 10:38:01;;;;;;;10.32;2.58;;;16.30;69.70;;;;;;5062983;28;20048;-88
2021/05/12 10:40:28;;;;;;;8.48;2.00;;;16.30;70.40;;;;;;5071102;28;20499;-88
2021/05/12 10:46:12;;;;;;;9.27;2.25;;;16.40;69.90;;;;;;5058318;28;20484;-88
2021/05/12 10:48:47;;;;;;;10.65;2.00;;;16.30;70.00;;;;;;5088118;28;20040;-88
2021/05/12 10:51:23;;;;;;;8.93;2.45;;;16.20;69.20;;;;;;5061735;28;20155;-87
2021/05/12 10:53:53;;;;;;;8.57;2.10;;;16.20;69.50;;;;;;5054819;28;20050;-88
2021/05/12 10:56:21;;;;;;;8.35;2.65;;;16.10;68.60;;;;;;5071704;28;20086;-87
2021/05/12 10:58:58;;;;;;;9.20;2.75;;;16.00;70.30;;;;;;5081116;28;20048;-87
2021/05/12 11:01:27;;;;;;;16.48;3.88;;;16.10;71.50;;;;;;5066310;28;20051;-88
2021/05/12 11:03:52;;;;;;;12.10;3.17;;;16.10;69.20;;;;;;5055279;28;20060;-89
2021/05/12 11:06:24;;;;;;;10.63;2.38;;;15.90;71.00;;;;;;5065607;28;20056;-89
2021/05/12 11:09:07;;;;;;;10.48;2.17;;;16.20;70.40;;;;;;5082060;28;20050;-87
2021/05/12 11:11:38;;;;;;;8.32;2.22;;;16.10;70.20;;;;;;5064311;28;20047;-88
2021/05/12 11:14:23;;;;;;;6.97;1.88;;;16.20;69.80;;;;;;5069310;28;20059;-87
2021/05/12 11:17:10;;;;;;;8.13;2.13;;;16.30;70.20;;;;;;5077366;28;20053;-89
2021/05/12 11:19:37;;;;;;;8.00;2.10;;;16.50;68.80;;;;;;5077328;28;20048;-89
2021/05/12 11:33:27;;;;;;;10.30;2.08;;;16.70;65.50;;;;;;5062973;28;20480;-88
2021/05/12 11:36:02;;;;;;;8.98;1.88;;;16.60;66.10;;;;;;5035773;28;20059;-88
2021/05/12 11:38:31;;;;;;;8.65;2.90;;;16.80;69.30;;;;;;5055400;28;20041;-87
2021/05/12 11:41:06;;;;;;;9.00;2.35;;;17.10;66.50;;;;;;5076031;28;20053;-88
2021/05/12 11:43:35;;;;;;;6.45;2.08;;;16.90;65.40;;;;;;5078309;28;20055;-90
2021/05/12 11:46:27;;;;;;;10.40;2.40;;;16.70;66.90;;;;;;5052578;28;20455;-90
2021/05/12 11:49:10;;;;;;;10.50;2.17;;;17.00;68.40;;;;;;5058356;28;20413;-90
2021/05/12 11:51:47;;;;;;;8.35;2.28;;;17.30;65.30;;;;;;5053930;28;20493;-89
2021/05/12 11:54:17;;;;;;;8.07;2.40;;;;;;;;;;5047149;28;20049;-88
2021/05/12 11:56:49;;;;;;;8.98;1.77;;;;;;;;;;5069000;28;20079;-89
2021/05/12 11:59:23;;;;;;;8.68;1.90;;;;;;;;;;5052594;28;20044;-87
2021/05/12 12:01:56;;;;;;;10.13;2.65;;;;;;;;;;5075595;28;20048;-89
2021/05/12 12:04:31;;;;;;;7.38;1.98;;;;;;;;;;5056976;28;20202;-88
2021/05/12 12:06:57;;;;;;;9.43;2.13;;;;;;;;;;5099427;28;20089;-89
2021/05/12 12:09:24;;;;;;;10.45;2.13;;;;;;;;;;5081816;28;20287;-92
2021/05/12 12:11:50;;;;;;;7.35;2.10;;;;;;;;;;5077897;28;20047;-91
2021/05/12 12:14:18;;;;;;;7.28;1.83;;;;;;;;;;5066126;28;20140;-93
2021/05/12 12:16:45;;;;;;;7.80;2.03;;;;;;;;;;5075945;28;20051;-92
2021/05/12 12:19:11;;;;;;;9.55;2.13;;;;;;;;;;5075780;28;20777;-92
2021/05/12 12:21:38;;;;;;;6.00;1.70;;;;;;;;;;5067670;28;20838;-91
2021/05/12 12:24:15;;;;;;;10.00;1.88;;;;;;;;;;5062870;28;20491;-93
2021/05/12 12:26:45;;;;;;;5.53;1.58;;;;;;;;;;5080786;28;20048;-93
2021/05/12 12:29:11;;;;;;;8.77;2.03;;;;;;;;;;5075264;28;20609;-94
2021/05/12 12:31:48;;;;;;;8.40;1.90;;;;;;;;;;5078071;28;20051;-94
2021/05/12 12:34:17;;;;;;;7.38;2.15;;;;;;;;;;5063537;28;20404;-93
2021/05/12 12:37:03;;;;;;;7.07;1.70;;;;;;;;;;5059369;28;20072;-93
2021/05/12 12:39:45;;;;;;;10.93;2.33;;;;;;;;;;5048833;28;20056;-94
2021/05/12 12:42:11;;;;;;;8.77;1.95;;;;;;;;;;5055220;28;20041;-92
2021/05/12 12:44:42;;;;;;;9.88;2.20;;;;;;;;;;5078360;28;20487;-91
2021/05/12 12:47:16;;;;;;;6.78;1.95;;;;;;;;;;5057781;28;20056;-92
2021/05/12 12:49:46;;;;;;;6.30;1.30;;;;;;;;;;5053805;28;20045;-91
2021/05/12 12:52:17;;;;;;;6.28;1.58;;;;;;;;;;5071689;28;20048;-93
2021/05/12 12:55:05;;;;;;;6.03;1.35;;;;;;;;;;5072310;28;20044;-95
2021/05/12 12:57:43;;;;;;;6.30;1.80;;;;;;;;;;5070657;28;20189;-93
2021/05/12 13:00:19;;;;;;;7.90;1.98;;;;;;;;;;5070774;28;20048;-93
2021/05/12 13:02:55;;;;;;;9.25;2.53;;;;;;;;;;5063398;28;20058;-94
2021/05/12 13:05:21;;;;;;;9.05;1.95;;;;;;;;;;5047312;28;20135;-93
2021/05/12 13:07:48;;;;;;;8.80;2.10;;;;;;;;;;5073842;28;20056;-95